createdAt,value
2023-09-03T00:02:24.064Z,65.34
2023-09-03T00:04:51.137Z,64.99
2023-09-03T00:07:18.237Z,65.15
2023-09-03T00:09:45.402Z,65.12
2023-09-03T00:12:12.615Z,65.30
2023-09-03T00:14:41.135Z,65.43
2023-09-03T00:17:08.336Z,66.30
2023-09-03T00:19:35.473Z,66.73
2023-09-03T00:22:02.739Z,66.80
2023-09-03T00:24:32.984Z,66.83
2023-09-03T00:27:00.182Z,67.24
2023-09-03T00:29:27.952Z,67.38
2023-09-03T00:31:57.608Z,67.57
2023-09-03T00:34:24.828Z,67.35
2023-09-03T00:36:51.822Z,67.27
2023-09-03T00:39:20.217Z,66.39
2023-09-03T00:41:47.193Z,66.29
2023-09-03T00:44:15.572Z,66.07
2023-09-03T00:46:43.004Z,66.39
2023-09-03T00:49:12.035Z,66.45
2023-09-03T00:51:39.698Z,66.52
2023-09-03T00:54:07.330Z,66.10
2023-09-03T00:56:34.631Z,66.79
2023-09-03T00:59:01.926Z,66.89
2023-09-03T01:01:29.193Z,66.57
2023-09-03T01:03:57.546Z,66.73
2023-09-03T01:06:26.477Z,67.05
2023-09-03T01:08:53.565Z,66.72
2023-09-03T01:11:29.575Z,66.69
2023-09-03T01:14:03.864Z,66.37
2023-09-03T01:16:34.684Z,66.33
2023-09-03T01:19:06.711Z,66.58
2023-09-03T01:21:53.812Z,66.71
2023-09-03T01:24:33.805Z,66.32
2023-09-03T01:27:08.027Z,66.33
2023-09-03T01:29:36.753Z,66.96
2023-09-03T01:32:04.932Z,66.93
2023-09-03T01:34:31.637Z,67.45
2023-09-03T01:36:58.832Z,67.90
2023-09-03T01:39:26.520Z,68.10
2023-09-03T01:41:54.688Z,68.03
2023-09-03T01:44:21.763Z,68.49
2023-09-03T01:46:52.110Z,67.63
2023-09-03T01:49:31.978Z,68.04
2023-09-03T01:52:08.910Z,68.25
2023-09-03T01:54:41.446Z,68.31
2023-09-03T01:57:12.591Z,68.68
2023-09-03T01:59:43.270Z,68.90
2023-09-03T02:02:12.618Z,68.60
2023-09-03T02:04:40.084Z,68.45
2023-09-03T02:07:07.186Z,68.74
2023-09-03T02:09:34.338Z,69.32
2023-09-03T02:12:01.938Z,69.59
2023-09-03T02:14:29.261Z,69.20
2023-09-03T02:16:56.218Z,69.19
2023-09-03T02:19:25.235Z,69.08
2023-09-03T02:21:52.900Z,69.65
2023-09-03T02:24:19.937Z,69.88
2023-09-03T02:26:47.726Z,70.16
2023-09-03T02:29:15.809Z,70.02
2023-09-03T02:31:43.014Z,70.63
2023-09-03T02:34:10.297Z,70.83
2023-09-03T02:36:39.264Z,70.57
2023-09-03T02:39:07.643Z,70.71
2023-09-03T02:41:34.735Z,70.74
2023-09-03T02:44:02.775Z,70.66
2023-09-03T02:46:29.907Z,70.57
2023-09-03T02:48:57.237Z,70.85
2023-09-03T02:51:24.533Z,70.83
2023-09-03T02:53:53.055Z,70.56
2023-09-03T02:56:20.124Z,70.84
2023-09-03T02:58:48.596Z,71.39
2023-09-03T03:01:16.766Z,71.17
2023-09-03T03:03:44.193Z,71.08
2023-09-03T03:06:11.933Z,71.32
2023-09-03T03:08:39.152Z,71.15
2023-09-03T03:11:08.970Z,71.18
2023-09-03T03:13:38.880Z,71.05
2023-09-03T03:16:07.874Z,70.30
2023-09-03T03:18:35.682Z,70.90
2023-09-03T03:21:10.668Z,70.88
2023-09-03T03:23:39.570Z,70.50
2023-09-03T03:26:08.085Z,70.14
2023-09-03T03:28:36.103Z,70.67
2023-09-03T03:31:11.262Z,71.28
2023-09-03T03:33:38.513Z,70.94
2023-09-03T03:36:06.404Z,71.36
2023-09-03T03:38:33.706Z,71.76
2023-09-03T03:41:12.611Z,71.68
2023-09-03T03:43:42.879Z,72.08
2023-09-03T03:46:11.275Z,71.63
2023-09-03T03:48:39.266Z,71.45
2023-09-03T03:51:06.416Z,71.70
2023-09-03T03:53:33.495Z,71.88
2023-09-03T03:56:01.576Z,72.32
2023-09-03T03:58:31.784Z,72.55
2023-09-03T04:00:58.927Z,73.03
2023-09-03T04:03:31.069Z,72.92
2023-09-03T04:05:59.176Z,72.82
2023-09-03T04:08:27.501Z,73.06
2023-09-03T04:10:58.261Z,72.69
2023-09-03T04:13:26.134Z,72.08
2023-09-03T04:15:54.601Z,72.44
2023-09-03T04:18:21.886Z,72.02
2023-09-03T04:20:52.635Z,72.24
2023-09-03T04:23:20.750Z,72.05
2023-09-03T04:25:48.746Z,72.55
2023-09-03T04:28:16.221Z,72.44
2023-09-03T04:30:43.262Z,72.02
2023-09-03T04:33:12.013Z,72.05
2023-09-03T04:35:39.910Z,72.27
2023-09-03T04:38:07.661Z,72.85
2023-09-03T04:40:35.581Z,72.76
2023-09-03T04:43:03.946Z,72.71
2023-09-03T04:45:33.204Z,73.36
2023-09-03T04:48:02.285Z,72.84
2023-09-03T04:50:35.202Z,73.33
2023-09-03T04:53:04.158Z,73.14
2023-09-03T04:55:32.404Z,72.87
2023-09-03T04:57:59.396Z,72.90
2023-09-03T05:00:26.491Z,72.31
2023-09-03T05:02:53.648Z,71.73
2023-09-03T05:05:20.839Z,71.92
2023-09-03T05:07:49.435Z,71.24
2023-09-03T05:10:17.011Z,70.46
2023-09-03T05:12:44.946Z,69.84
2023-09-03T05:15:12.179Z,69.23
2023-09-03T05:17:40.510Z,68.39
2023-09-03T05:20:12.045Z,68.09
2023-09-03T05:22:39.500Z,67.71
2023-09-03T05:25:09.235Z,66.19
2023-09-03T05:27:38.492Z,65.91
2023-09-03T05:30:07.716Z,65.71
2023-09-03T05:32:34.797Z,65.17
2023-09-03T05:35:02.472Z,64.93
2023-09-03T05:37:29.884Z,64.50
2023-09-03T05:39:56.995Z,64.57
2023-09-03T05:42:25.520Z,64.41
2023-09-03T05:44:52.863Z,64.49
2023-09-03T05:47:20.101Z,64.01
2023-09-03T05:49:49.367Z,63.25
2023-09-03T05:52:16.472Z,63.16
2023-09-03T05:54:43.636Z,63.46
2023-09-03T05:57:10.701Z,63.05
2023-09-03T05:59:39.274Z,62.53
2023-09-03T06:02:06.384Z,62.81
2023-09-03T06:04:33.593Z,62.49
2023-09-03T06:07:00.640Z,61.58
2023-09-03T06:09:27.652Z,61.38
2023-09-03T06:11:54.695Z,61.26
2023-09-03T06:14:21.615Z,61.07
2023-09-03T06:16:50.195Z,60.76
2023-09-03T06:19:17.297Z,59.50
2023-09-03T06:21:44.265Z,59.24
2023-09-03T06:24:11.237Z,59.15
2023-09-03T06:26:38.592Z,58.72
2023-09-03T06:29:05.553Z,58.44
2023-09-03T06:31:33.132Z,58.23
2023-09-03T06:34:01.606Z,57.80
2023-09-03T06:36:28.516Z,57.74
2023-09-03T06:38:55.459Z,57.98
2023-09-03T06:41:22.631Z,57.17
2023-09-03T06:43:49.732Z,56.60
2023-09-03T06:46:16.765Z,56.23
2023-09-03T06:48:43.830Z,55.59
2023-09-03T06:51:12.984Z,54.53
2023-09-03T06:53:40.007Z,54.17
2023-09-03T06:56:07.582Z,53.80
2023-09-03T06:58:34.565Z,54.03
2023-09-03T07:01:03.688Z,53.66
2023-09-03T07:03:30.775Z,53.59
2023-09-03T07:05:57.782Z,52.55
2023-09-03T07:08:26.534Z,52.50
2023-09-03T07:10:59.647Z,52.21
2023-09-03T07:13:26.726Z,51.91
2023-09-03T07:15:53.710Z,51.93
2023-09-03T07:18:20.901Z,50.88
2023-09-03T07:20:48.095Z,50.56
2023-09-03T07:23:16.233Z,50.17
2023-09-03T07:25:44.753Z,49.54
2023-09-03T07:28:11.785Z,48.84
2023-09-03T07:30:40.284Z,48.74
2023-09-03T07:33:07.412Z,48.60
2023-09-03T07:35:34.768Z,47.32
2023-09-03T07:38:01.670Z,46.44
2023-09-03T07:40:29.921Z,46.65
2023-09-03T07:42:58.399Z,46.16
2023-09-03T07:45:25.423Z,46.19
2023-09-03T07:47:52.491Z,44.86
2023-09-03T07:50:19.731Z,44.55
2023-09-03T07:52:46.776Z,43.45
2023-09-03T07:55:13.805Z,43.23
2023-09-03T07:57:40.735Z,43.39
2023-09-03T08:00:10.341Z,43.67
2023-09-03T08:02:40.145Z,43.02
2023-09-03T08:05:12.311Z,43.24
2023-09-03T08:07:39.356Z,42.76
2023-09-03T08:10:07.328Z,41.13
2023-09-03T08:12:34.374Z,40.65
2023-09-03T08:15:01.410Z,40.00
2023-09-03T08:17:32.265Z,38.58
2023-09-03T08:19:59.288Z,35.97
2023-09-03T08:22:26.342Z,37.44
2023-09-03T08:24:53.323Z,36.68
2023-09-03T08:27:20.325Z,35.36
2023-09-03T08:29:47.256Z,34.77
2023-09-03T08:32:14.217Z,34.88
2023-09-03T08:34:42.713Z,33.47
2023-09-03T08:37:11.516Z,33.89
2023-09-03T08:39:39.080Z,33.40
2023-09-03T08:42:06.608Z,33.39
2023-09-03T08:44:36.971Z,31.20
2023-09-03T08:47:05.170Z,31.10
2023-09-03T08:49:33.282Z,31.46
2023-09-03T08:52:01.915Z,30.13
2023-09-03T08:54:29.368Z,29.25
2023-09-03T08:56:56.640Z,28.53
2023-09-03T08:59:24.035Z,28.31
2023-09-03T09:01:53.869Z,29.22
2023-09-03T09:04:21.888Z,28.36
2023-09-03T09:06:49.398Z,27.66
2023-09-03T09:09:17.949Z,27.38
2023-09-03T09:11:49.702Z,27.91
2023-09-03T09:14:23.642Z,28.44
2023-09-03T09:16:50.563Z,27.21
2023-09-03T09:19:17.872Z,26.89
2023-09-03T09:21:44.918Z,28.03
2023-09-03T09:24:12.961Z,27.18
2023-09-03T09:26:41.396Z,27.68
2023-09-03T09:29:08.444Z,26.43
2023-09-03T09:31:36.115Z,26.23
2023-09-03T09:34:11.383Z,25.09
2023-09-03T09:36:38.422Z,24.40
2023-09-03T09:39:06.400Z,25.03
2023-09-03T09:41:38.755Z,25.38
2023-09-03T09:44:14.083Z,23.58
2023-09-03T09:46:41.267Z,24.31
2023-09-03T09:49:08.542Z,24.19
2023-09-03T09:51:36.199Z,23.64
2023-09-03T09:54:04.519Z,23.33
2023-09-03T09:56:32.513Z,23.36
2023-09-03T09:58:59.853Z,23.20
2023-09-03T10:01:42.617Z,22.88
2023-09-03T10:04:09.853Z,22.59
2023-09-03T10:06:37.822Z,21.69
2023-09-03T10:09:05.165Z,21.56
2023-09-03T10:11:32.203Z,21.12
2023-09-03T10:13:59.729Z,20.51
2023-09-03T10:16:28.964Z,20.34
2023-09-03T10:18:58.730Z,19.82
2023-09-03T10:21:42.706Z,21.34
2023-09-03T10:24:14.595Z,19.78
2023-09-03T10:26:44.585Z,19.56
2023-09-03T10:29:13.230Z,19.26
2023-09-03T10:31:42.505Z,19.88
2023-09-03T10:34:10.170Z,19.04
2023-09-03T10:36:37.124Z,19.36
2023-09-03T10:39:08.660Z,19.75
2023-09-03T10:41:35.584Z,19.41
2023-09-03T10:44:15.616Z,18.82
2023-09-03T10:46:59.937Z,20.01
2023-09-03T10:49:41.052Z,19.16
2023-09-03T10:52:41.510Z,18.79
2023-09-03T10:55:14.122Z,18.70
2023-09-03T10:57:41.704Z,18.46
2023-09-03T11:00:14.880Z,17.91
2023-09-03T11:02:49.120Z,18.36
2023-09-03T11:05:21.409Z,18.45
2023-09-03T11:07:49.434Z,19.00
2023-09-03T11:10:41.612Z,18.87
2023-09-03T11:13:22.697Z,18.21
2023-09-03T11:15:56.727Z,18.10
2023-09-03T11:18:27.714Z,18.79
2023-09-03T11:20:55.609Z,19.80
2023-09-03T11:23:23.220Z,19.25
2023-09-03T11:25:50.626Z,19.36
2023-09-03T11:28:17.694Z,18.96
2023-09-03T11:30:45.308Z,18.53
2023-09-03T11:33:27.213Z,18.25
2023-09-03T11:35:57.458Z,18.68
2023-09-03T11:38:26.125Z,18.59
2023-09-03T11:40:57.069Z,18.18
2023-09-03T11:43:24.763Z,18.75
2023-09-03T11:45:52.120Z,17.57
2023-09-03T11:48:26.392Z,18.70
2023-09-03T11:50:53.715Z,17.73
2023-09-03T11:53:21.710Z,18.67
2023-09-03T11:55:51.496Z,17.37
2023-09-03T11:58:20.561Z,17.58
2023-09-03T12:00:47.693Z,17.91
2023-09-03T12:03:15.530Z,17.57
2023-09-03T12:05:44.215Z,17.02
2023-09-03T12:08:11.302Z,17.95
2023-09-03T12:10:39.809Z,18.10
2023-09-03T12:13:08.929Z,17.47
2023-09-03T12:15:35.967Z,17.37
2023-09-03T12:18:07.893Z,17.48
2023-09-03T12:20:36.411Z,17.85
2023-09-03T12:23:09.088Z,17.86
2023-09-03T12:25:36.362Z,17.34
2023-09-03T12:28:05.431Z,16.92
2023-09-03T12:30:55.668Z,16.73
2023-09-03T12:33:23.286Z,16.93
2023-09-03T12:36:07.389Z,17.12
2023-09-03T12:38:57.232Z,17.44
2023-09-03T12:41:26.301Z,17.14
2023-09-03T12:43:54.081Z,17.15
2023-09-03T12:46:21.266Z,18.63
2023-09-03T12:48:48.418Z,17.72
2023-09-03T12:51:17.464Z,17.25
2023-09-03T12:53:48.925Z,17.34
2023-09-03T12:56:17.467Z,17.54
2023-09-03T12:58:44.650Z,16.79
2023-09-03T13:01:12.315Z,15.95
2023-09-03T13:03:39.464Z,16.93
2023-09-03T13:06:07.217Z,16.79
2023-09-03T13:08:35.178Z,16.22
2023-09-03T13:11:02.369Z,16.33
2023-09-03T13:13:30.899Z,16.26
2023-09-03T13:15:58.083Z,16.60
2023-09-03T13:18:25.155Z,16.72
2023-09-03T13:20:51.840Z,16.05
2023-09-03T13:23:18.967Z,16.28
2023-09-03T13:25:46.089Z,16.53
2023-09-03T13:28:13.769Z,16.50
2023-09-03T13:30:53.487Z,16.85
2023-09-03T13:33:25.180Z,16.35
2023-09-03T13:35:53.034Z,16.80
2023-09-03T13:38:20.115Z,17.26
2023-09-03T13:40:48.331Z,16.96
2023-09-03T13:43:16.472Z,16.88
2023-09-03T13:45:54.287Z,16.84
2023-09-03T13:48:21.435Z,16.54
2023-09-03T13:50:48.383Z,15.92
2023-09-03T13:53:15.686Z,15.72
2023-09-03T13:55:42.584Z,16.24
2023-09-03T13:58:09.705Z,15.44
2023-09-03T14:00:38.729Z,17.05
2023-09-03T14:03:09.538Z,17.22
2023-09-03T14:05:36.820Z,17.96
2023-09-03T14:08:04.197Z,19.15
2023-09-03T14:10:31.227Z,19.25
2023-09-03T14:12:58.189Z,19.42
2023-09-03T14:15:24.960Z,20.74
2023-09-03T14:17:52.067Z,20.08
2023-09-03T14:20:20.507Z,20.67
2023-09-03T14:22:48.725Z,20.63
2023-09-03T14:25:15.704Z,21.95
2023-09-03T14:27:42.677Z,21.67
2023-09-03T14:30:11.067Z,22.27
2023-09-03T14:32:38.368Z,22.73
2023-09-03T14:35:06.006Z,22.49
2023-09-03T14:37:34.798Z,23.38
2023-09-03T14:40:01.937Z,23.40
2023-09-03T14:42:28.961Z,22.93
2023-09-03T14:44:55.985Z,23.04
2023-09-03T14:47:22.864Z,22.89
2023-09-03T14:49:49.839Z,22.64
2023-09-03T14:52:18.372Z,22.80
2023-09-03T14:54:46.792Z,23.13
2023-09-03T14:57:13.858Z,23.57
2023-09-03T14:59:41.096Z,24.09
2023-09-03T15:02:08.267Z,24.48
2023-09-03T15:04:36.456Z,24.23
2023-09-03T15:07:04.253Z,24.60
2023-09-03T15:09:31.222Z,25.04
2023-09-03T15:11:59.694Z,25.24
2023-09-03T15:14:26.674Z,25.10
2023-09-03T15:16:53.718Z,26.00
2023-09-03T15:19:22.101Z,26.06
2023-09-03T15:21:50.737Z,26.07
2023-09-03T15:24:17.936Z,26.08
2023-09-03T15:26:47.165Z,25.55
2023-09-03T15:29:16.867Z,24.43
2023-09-03T15:31:44.106Z,24.10
2023-09-03T15:34:12.013Z,24.64
2023-09-03T15:36:39.062Z,23.82
2023-09-03T15:39:06.199Z,23.93
2023-09-03T15:41:33.309Z,23.93
2023-09-03T15:44:03.273Z,23.67
2023-09-03T15:46:32.094Z,24.16
2023-09-03T15:48:59.311Z,24.00
2023-09-03T15:51:26.041Z,23.93
2023-09-03T15:53:53.185Z,24.50
2023-09-03T15:56:20.491Z,25.04
2023-09-03T15:58:47.552Z,24.66
2023-09-03T16:01:14.638Z,24.83
2023-09-03T16:03:42.970Z,24.79
2023-09-03T16:06:10.214Z,25.35
2023-09-03T16:08:36.988Z,25.55
2023-09-03T16:11:04.928Z,26.05
2023-09-03T16:13:31.960Z,26.02
2023-09-03T16:15:59.029Z,26.18
2023-09-03T16:18:26.137Z,26.71
2023-09-03T16:20:54.445Z,27.21
2023-09-03T16:23:21.699Z,27.02
2023-09-03T16:25:48.556Z,27.74
2023-09-03T16:28:15.617Z,27.83
2023-09-03T16:30:42.730Z,28.63
2023-09-03T16:33:09.900Z,28.63
2023-09-03T16:35:37.004Z,29.44
2023-09-03T16:38:05.533Z,28.97
2023-09-03T16:40:32.962Z,29.18
2023-09-03T16:43:00.014Z,29.18
2023-09-03T16:45:26.910Z,29.96
2023-09-03T16:47:54.026Z,29.62
2023-09-03T16:50:21.097Z,29.83
2023-09-03T16:52:48.047Z,29.66
2023-09-03T16:55:16.676Z,30.22
2023-09-03T16:57:43.888Z,30.86
2023-09-03T17:00:11.986Z,33.19
2023-09-03T17:02:39.091Z,33.07
2023-09-03T17:05:07.453Z,33.22
2023-09-03T17:07:34.413Z,34.17
2023-09-03T17:10:01.477Z,35.01
2023-09-03T17:12:29.878Z,35.66
2023-09-03T17:14:57.379Z,35.28
2023-09-03T17:17:24.413Z,35.83
2023-09-03T17:19:51.753Z,36.83
2023-09-03T17:22:18.894Z,37.22
2023-09-03T17:24:47.089Z,37.39
2023-09-03T17:27:14.138Z,37.36
2023-09-03T17:29:42.528Z,36.46
2023-09-03T17:32:09.915Z,37.09
2023-09-03T17:34:37.063Z,37.87
2023-09-03T17:37:06.118Z,38.69
2023-09-03T17:39:33.445Z,37.58
2023-09-03T17:42:01.162Z,37.99
2023-09-03T17:44:28.541Z,37.97
2023-09-03T17:46:57.029Z,38.04
2023-09-03T17:49:24.117Z,39.35
2023-09-03T17:51:51.194Z,40.03
2023-09-03T17:54:18.147Z,40.09
2023-09-03T17:56:45.189Z,39.68
2023-09-03T17:59:12.535Z,39.88
2023-09-03T18:01:39.975Z,40.58
2023-09-03T18:04:08.594Z,41.14
2023-09-03T18:06:35.804Z,40.40
2023-09-03T18:09:02.700Z,40.51
2023-09-03T18:11:30.551Z,40.79
2023-09-03T18:13:57.618Z,40.62
2023-09-03T18:16:25.971Z,41.78
2023-09-03T18:18:53.186Z,41.98
2023-09-03T18:21:21.524Z,41.48
2023-09-03T18:23:48.638Z,41.72
2023-09-03T18:26:16.038Z,42.36
2023-09-03T18:28:47.486Z,41.75
2023-09-03T18:31:14.988Z,41.13
2023-09-03T18:33:42.102Z,42.10
2023-09-03T18:36:09.543Z,42.10
2023-09-03T18:38:38.342Z,42.28
2023-09-03T18:41:05.522Z,42.79
2023-09-03T18:43:32.627Z,42.03
2023-09-03T18:45:59.735Z,41.05
2023-09-03T18:48:26.684Z,41.86
2023-09-03T18:50:53.752Z,41.37
2023-09-03T18:53:22.248Z,41.06
2023-09-03T18:55:50.801Z,41.85
2023-09-03T18:58:17.833Z,41.70
2023-09-03T19:00:44.968Z,40.57
2023-09-03T19:03:12.009Z,41.76
2023-09-03T19:05:39.935Z,41.63
2023-09-03T19:08:07.314Z,41.06
2023-09-03T19:10:34.422Z,40.90
2023-09-03T19:13:09.695Z,40.45
2023-09-03T19:15:38.601Z,41.64
2023-09-03T19:18:07.145Z,41.34
2023-09-03T19:20:35.525Z,40.42
2023-09-03T19:23:04.924Z,41.91
2023-09-03T19:25:40.542Z,41.69
2023-09-03T19:28:09.604Z,42.42
2023-09-03T19:30:36.705Z,43.36
2023-09-03T19:33:04.205Z,43.26
2023-09-03T19:35:33.168Z,44.33
2023-09-03T19:38:01.759Z,43.92
2023-09-03T19:40:28.867Z,44.62
2023-09-03T19:42:55.823Z,44.70
2023-09-03T19:45:24.740Z,44.19
2023-09-03T19:47:53.138Z,44.67
2023-09-03T19:50:20.258Z,44.87
2023-09-03T19:52:47.394Z,45.11
2023-09-03T19:55:14.710Z,45.54
2023-09-03T19:57:41.706Z,45.51
2023-09-03T20:00:10.952Z,45.91
2023-09-03T20:02:42.114Z,46.64
2023-09-03T20:05:09.469Z,46.15
2023-09-03T20:07:36.483Z,47.87
2023-09-03T20:10:03.644Z,46.81
2023-09-03T20:12:30.629Z,46.98
2023-09-03T20:14:57.637Z,46.71
2023-09-03T20:17:24.716Z,46.59
2023-09-03T20:19:53.718Z,46.57
2023-09-03T20:22:21.240Z,46.93
2023-09-03T20:24:48.583Z,46.27
2023-09-03T20:27:16.249Z,46.73
2023-09-03T20:29:45.430Z,48.26
2023-09-03T20:32:12.514Z,47.92
2023-09-03T20:34:43.695Z,49.08
2023-09-03T20:37:12.356Z,49.36
2023-09-03T20:39:39.524Z,49.65
2023-09-03T20:42:07.010Z,50.14
2023-09-03T20:44:33.984Z,49.58
2023-09-03T20:47:00.987Z,49.65
2023-09-03T20:49:27.986Z,49.33
2023-09-03T20:51:55.016Z,50.93
2023-09-03T20:54:23.329Z,51.70
2023-09-03T20:56:50.292Z,52.03
2023-09-03T20:59:17.373Z,51.75
2023-09-03T21:01:44.271Z,51.56
2023-09-03T21:04:11.200Z,51.55
2023-09-03T21:06:38.469Z,51.55
2023-09-03T21:09:06.367Z,51.33
2023-09-03T21:11:34.974Z,52.09
2023-09-03T21:14:03.717Z,52.89
2023-09-03T21:16:30.966Z,52.85
2023-09-03T21:18:58.247Z,53.26
2023-09-03T21:21:26.468Z,53.46
2023-09-03T21:23:53.407Z,54.24
2023-09-03T21:26:20.575Z,54.35
2023-09-03T21:28:49.012Z,53.53
2023-09-03T21:31:17.952Z,52.72
2023-09-03T21:33:45.074Z,52.81
2023-09-03T21:36:16.598Z,52.96
2023-09-03T21:38:43.487Z,53.15
2023-09-03T21:41:11.371Z,52.49
2023-09-03T21:43:38.589Z,53.87
2023-09-03T21:46:07.335Z,54.44
2023-09-03T21:48:34.406Z,54.71
2023-09-03T21:51:16.825Z,54.50
2023-09-03T21:53:46.057Z,54.22
2023-09-03T21:56:13.123Z,54.68
2023-09-03T21:58:40.145Z,55.31
2023-09-03T22:01:08.938Z,55.92
2023-09-03T22:03:36.125Z,56.65
2023-09-03T22:06:05.703Z,57.12
2023-09-03T22:08:33.957Z,56.85
2023-09-03T22:11:01.088Z,56.93
2023-09-03T22:13:30.576Z,56.84
2023-09-03T22:15:57.856Z,56.79
2023-09-03T22:18:27.618Z,55.95
2023-09-03T22:20:54.732Z,55.42
2023-09-03T22:23:21.738Z,55.30
2023-09-03T22:25:48.682Z,54.91
2023-09-03T22:28:15.604Z,54.85
2023-09-03T22:30:42.583Z,55.06
2023-09-03T22:33:09.682Z,54.92
2023-09-03T22:35:38.021Z,54.25
2023-09-03T22:38:05.098Z,54.03
2023-09-03T22:40:32.047Z,53.89
2023-09-03T22:42:59.072Z,54.01
2023-09-03T22:45:26.344Z,53.96
2023-09-03T22:47:53.506Z,53.83
2023-09-03T22:50:20.767Z,53.50
2023-09-03T22:52:49.307Z,53.53
2023-09-03T22:55:16.465Z,53.52
2023-09-03T22:57:43.384Z,53.45
2023-09-03T23:00:11.452Z,53.59
2023-09-03T23:02:40.338Z,53.64
2023-09-03T23:05:07.837Z,53.17
2023-09-03T23:07:34.863Z,53.61
2023-09-03T23:10:03.577Z,53.79
2023-09-03T23:12:30.645Z,53.90
2023-09-03T23:14:59.381Z,53.99
2023-09-03T23:17:29.024Z,54.21
2023-09-03T23:19:58.418Z,53.89
2023-09-03T23:22:29.333Z,54.13
2023-09-03T23:24:57.031Z,54.37
2023-09-03T23:27:25.386Z,53.92
2023-09-03T23:29:52.449Z,54.24
2023-09-03T23:32:19.349Z,54.58
2023-09-03T23:34:46.371Z,54.54
2023-09-03T23:37:13.352Z,54.53
2023-09-03T23:39:40.264Z,54.39
2023-09-03T23:42:07.480Z,54.81
2023-09-03T23:44:36.029Z,54.93
2023-09-03T23:47:13.305Z,55.48
2023-09-03T23:49:41.357Z,57.36
2023-09-03T23:52:09.097Z,59.40
2023-09-03T23:54:35.988Z,61.52
2023-09-03T23:57:03.044Z,63.42
2023-09-03T23:59:30.795Z,63.61
